sensor_id;sensor_type;location;lat;lon;timestamp;pressure;altitude;pressure_sealevel;temperature;humidity
30463;BME280;17256;43.618;25.336;2023-05-07T00:00:46;100509.53;;;13.81;78.76
30463;BME280;17256;43.618;25.336;2023-05-07T00:06:27;100812.50;;;15.51;79.26
30463;BME280;17256;43.618;25.336;2023-05-07T00:08:55;100734.63;;;14.98;78.86
30463;BME280;17256;43.618;25.336;2023-05-07T00:11:23;100795.34;;;15.43;77.70
30463;BME280;17256;43.618;25.336;2023-05-07T00:13:52;100719.50;;;15.00;77.75
30463;BME280;17256;43.618;25.336;2023-05-07T00:26:24;100701.19;;;14.74;80.09
30463;BME280;17256;43.618;25.336;2023-05-07T00:28:54;100736.84;;;14.83;80.53
30463;BME280;17256;43.618;25.336;2023-05-07T00:31:23;100766.19;;;15.15;81.43
30463;BME280;17256;43.618;25.336;2023-05-07T00:33:56;100735.69;;;14.72;81.56
30463;BME280;17256;43.618;25.336;2023-05-07T00:52:37;100816.00;;;15.15;83.86
30463;BME280;17256;43.618;25.336;2023-05-07T00:55:05;100824.16;;;15.28;83.25
30463;BME280;17256;43.618;25.336;2023-05-07T00:57:39;100871.69;;;15.50;83.10
30463;BME280;17256;43.618;25.336;2023-05-07T01:00:06;100709.41;;;14.56;82.49
30463;BME280;17256;43.618;25.336;2023-05-07T01:02:35;100898.41;;;15.69;82.90
30463;BME280;17256;43.618;25.336;2023-05-07T01:14:16;100559.66;;;13.33;82.41
30463;BME280;17256;43.618;25.336;2023-05-07T01:17:45;100777.81;;;14.61;81.82
30463;BME280;17256;43.618;25.336;2023-05-07T01:20:19;100616.66;;;13.66;80.57
30463;BME280;17256;43.618;25.336;2023-05-07T01:22:47;100574.72;;;13.37;80.88
30463;BME280;17256;43.618;25.336;2023-05-07T01:25:14;100725.88;;;14.31;81.73
30463;BME280;17256;43.618;25.336;2023-05-07T01:27:45;100673.41;;;13.86;80.67
30463;BME280;17256;43.618;25.336;2023-05-07T01:30:12;100622.41;;;13.51;81.08
30463;BME280;17256;43.618;25.336;2023-05-07T01:32:47;101007.00;;;15.72;82.21
30463;BME280;17256;43.618;25.336;2023-05-07T01:35:20;100637.31;;;13.43;81.56
30463;BME280;17256;43.618;25.336;2023-05-07T01:37:48;100743.06;;;13.95;81.70
30463;BME280;17256;43.618;25.336;2023-05-07T01:40:16;100977.09;;;15.49;82.45
30463;BME280;17256;43.618;25.336;2023-05-07T01:42:43;100851.13;;;14.76;81.12
30463;BME280;17256;43.618;25.336;2023-05-07T01:45:10;100623.97;;;13.34;81.56
30463;BME280;17256;43.618;25.336;2023-05-07T01:47:36;100632.06;;;13.15;81.81
30463;BME280;17256;43.618;25.336;2023-05-07T01:50:05;100688.84;;;13.49;82.10
30463;BME280;17256;43.618;25.336;2023-05-07T01:52:31;100779.75;;;14.09;82.18
30463;BME280;17256;43.618;25.336;2023-05-07T01:54:57;101009.81;;;15.20;92.50
30463;BME280;17256;43.618;25.336;2023-05-07T01:57:23;100587.59;;;12.72;100.00
30463;BME280;17256;43.618;25.336;2023-05-07T02:05:21;100690.56;;;13.11;100.00
30463;BME280;17256;43.618;25.336;2023-05-07T02:07:55;100696.31;;;13.09;100.00
30463;BME280;17256;43.618;25.336;2023-05-07T02:10:21;100792.63;;;13.64;100.00
30463;BME280;17256;43.618;25.336;2023-05-07T02:12:46;100752.75;;;13.46;100.00
30463;BME280;17256;43.618;25.336;2023-05-07T02:15:12;100720.91;;;13.04;100.00
30463;BME280;17256;43.618;25.336;2023-05-07T02:17:58;100961.06;;;14.74;100.00
30463;BME280;17256;43.618;25.336;2023-05-07T02:25:21;100778.84;;;13.50;100.00
30463;BME280;17256;43.618;25.336;2023-05-07T02:40:04;100593.56;;;11.62;100.00
30463;BME280;17256;43.618;25.336;2023-05-07T02:42:45;100757.75;;;12.50;100.00
30463;BME280;17256;43.618;25.336;2023-05-07T02:45:31;100750.97;;;12.46;100.00
30463;BME280;17256;43.618;25.336;2023-05-07T02:51:56;100979.66;;;13.75;100.00
30463;BME280;17256;43.618;25.336;2023-05-07T02:59:12;100716.75;;;12.14;100.00
30463;BME280;17256;43.618;25.336;2023-05-07T03:02:17;100612.78;;;11.49;100.00
30463;BME280;17256;43.618;25.336;2023-05-07T03:05:42;100981.16;;;13.71;100.00
30463;BME280;17256;43.618;25.336;2023-05-07T03:13:45;100685.16;;;11.90;100.00
30463;BME280;17256;43.618;25.336;2023-05-07T03:16:11;100619.25;;;11.34;100.00
30463;BME280;17256;43.618;25.336;2023-05-07T03:18:37;100928.22;;;13.34;100.00
30463;BME280;17256;43.618;25.336;2023-05-07T03:21:03;100727.59;;;12.16;100.00
30463;BME280;17256;43.618;25.336;2023-05-07T03:23:32;100727.97;;;12.13;100.00
30463;BME280;17256;43.618;25.336;2023-05-07T03:26:01;100997.91;;;13.82;100.00
30463;BME280;17256;43.618;25.336;2023-05-07T03:28:29;100660.03;;;11.65;100.00
30463;BME280;17256;43.618;25.336;2023-05-07T03:30:59;100794.03;;;12.67;100.00
30463;BME280;17256;43.618;25.336;2023-05-07T03:40:14;100954.81;;;13.81;100.00
30463;BME280;17256;43.618;25.336;2023-05-07T03:43:34;100736.59;;;12.64;100.00
30463;BME280;17256;43.618;25.336;2023-05-07T04:07:34;100689.47;;;13.58;100.00
30463;BME280;17256;43.618;25.336;2023-05-07T04:10:04;100771.81;;;14.26;99.48
30463;BME280;17256;43.618;25.336;2023-05-07T04:12:47;100631.50;;;13.65;96.82
30463;BME280;17256;43.618;25.336;2023-05-07T04:15:20;101018.53;;;16.00;96.12
30463;BME280;17256;43.618;25.336;2023-05-07T04:20:36;100677.69;;;14.27;92.88
30463;BME280;17256;43.618;25.336;2023-05-07T04:23:04;100775.22;;;15.04;91.24
30463;BME280;17256;43.618;25.336;2023-05-07T04:25:31;100783.41;;;15.17;88.84
30463;BME280;17256;43.618;25.336;2023-05-07T04:28:05;100631.41;;;14.54;87.83
30463;BME280;17256;43.618;25.336;2023-05-07T04:39:19;100759.81;;;14.90;100.00
30463;BME280;17256;43.618;25.336;2023-05-07T04:50:23;100807.41;;;15.23;100.00
30463;BME280;17256;43.618;25.336;2023-05-07T05:07:44;101078.16;;;18.29;89.53
30463;BME280;17256;43.618;25.336;2023-05-07T05:19:28;100836.38;;;17.52;77.60
30463;BME280;17256;43.618;25.336;2023-05-07T05:22:31;100767.47;;;17.49;78.77
30463;BME280;17256;43.618;25.336;2023-05-07T05:25:24;100816.38;;;17.62;80.81
30463;BME280;17256;43.618;25.336;2023-05-07T05:28:00;100869.94;;;17.39;87.48
30463;BME280;17256;43.618;25.336;2023-05-07T05:31:22;100942.28;;;17.56;88.11
30463;BME280;17256;43.618;25.336;2023-05-07T05:34:27;100880.34;;;17.43;87.24
30463;BME280;17256;43.618;25.336;2023-05-07T05:37:05;101085.88;;;18.92;84.38
30463;BME280;17256;43.618;25.336;2023-05-07T05:40:36;101085.63;;;19.05;81.21
30463;BME280;17256;43.618;25.336;2023-05-07T05:43:41;100943.13;;;18.56;76.02
30463;BME280;17256;43.618;25.336;2023-05-07T05:46:44;100821.69;;;17.63;74.74
30463;BME280;17256;43.618;25.336;2023-05-07T05:49:25;100666.88;;;16.77;73.11
30463;BME280;17256;43.618;25.336;2023-05-07T06:00:32;100962.38;;;18.34;66.99
30463;BME280;17256;43.618;25.336;2023-05-07T06:11:12;100793.06;;;17.51;65.04
30463;BME280;17256;43.618;25.336;2023-05-07T06:13:58;101092.19;;;19.51;63.75
30463;BME280;17256;43.618;25.336;2023-05-07T06:17:06;100833.66;;;17.99;63.03
30463;BME280;17256;43.618;25.336;2023-05-07T06:54:06;100697.25;;;19.02;56.33
30463;BME280;17256;43.618;25.336;2023-05-07T06:56:35;100755.50;;;19.54;56.23
30463;BME280;17256;43.618;25.336;2023-05-07T06:59:03;100811.75;;;20.28;55.81
30463;BME280;17256;43.618;25.336;2023-05-07T07:27:31;100682.47;;;19.91;48.96
30463;BME280;17256;43.618;25.336;2023-05-07T07:35:36;100838.59;;;20.73;48.53
30463;BME280;17256;43.618;25.336;2023-05-07T07:38:10;100827.25;;;21.07;48.31
30463;BME280;17256;43.618;25.336;2023-05-07T07:40:54;101093.34;;;23.13;49.16
30463;BME280;17256;43.618;25.336;2023-05-07T07:43:22;100915.44;;;22.10;47.14
30463;BME280;17256;43.618;25.336;2023-05-07T07:46:29;101008.06;;;22.51;46.40
30463;BME280;17256;43.618;25.336;2023-05-07T07:49:24;100750.63;;;20.98;44.58
30463;BME280;17256;43.618;25.336;2023-05-07T07:52:06;100665.53;;;20.41;44.75
30463;BME280;17256;43.618;25.336;2023-05-07T07:54:55;101096.28;;;23.33;45.69
30463;BME280;17256;43.618;25.336;2023-05-07T07:58:02;101087.88;;;23.33;45.49
30463;BME280;17256;43.618;25.336;2023-05-07T08:00:40;100765.47;;;21.62;45.51
30463;BME280;17256;43.618;25.336;2023-05-07T08:03:39;101089.44;;;23.61;45.75
30463;BME280;17256;43.618;25.336;2023-05-07T08:14:51;100917.03;;;22.86;44.61
30463;BME280;17256;43.618;25.336;2023-05-07T08:17:19;100867.50;;;22.39;44.42
30463;BME280;17256;43.618;25.336;2023-05-07T08:19:48;100946.16;;;22.85;44.97
30463;BME280;17256;43.618;25.336;2023-05-07T08:22:15;100831.81;;;22.14;44.61
30463;BME280;17256;43.618;25.336;2023-05-07T08:24:44;100946.25;;;23.05;45.36
30463;BME280;17256;43.618;25.336;2023-05-07T08:27:25;100963.91;;;22.63;45.35
30463;BME280;17256;43.618;25.336;2023-05-07T08:29:53;100916.06;;;22.70;46.62
30463;BME280;17256;43.618;25.336;2023-05-07T08:32:21;100850.25;;;22.62;46.58
30463;BME280;17256;43.618;25.336;2023-05-07T08:34:47;100828.88;;;22.36;46.12
30463;BME280;17256;43.618;25.336;2023-05-07T08:37:21;100850.00;;;22.12;47.05
30463;BME280;17256;43.618;25.336;2023-05-07T08:40:25;101079.97;;;23.87;45.45
30463;BME280;17256;43.618;25.336;2023-05-07T08:42:54;100946.22;;;23.00;44.86
30463;BME280;17256;43.618;25.336;2023-05-07T08:45:22;100872.41;;;21.53;46.75
30463;BME280;17256;43.618;25.336;2023-05-07T08:47:54;100732.47;;;20.68;47.50
30463;BME280;17256;43.618;25.336;2023-05-07T08:50:23;100960.00;;;22.22;46.88
30463;BME280;17256;43.618;25.336;2023-05-07T08:52:53;100719.19;;;20.80;46.83
30463;BME280;17256;43.618;25.336;2023-05-07T08:55:20;100798.50;;;21.33;45.55
30463;BME280;17256;43.618;25.336;2023-05-07T08:58:01;100948.09;;;22.42;46.12
30463;BME280;17256;43.618;25.336;2023-05-07T09:00:29;100898.84;;;22.41;46.14
30463;BME280;17256;43.618;25.336;2023-05-07T09:02:57;101026.53;;;23.42;45.17
30463;BME280;17256;43.618;25.336;2023-05-07T09:05:57;101066.22;;;23.18;45.03
30463;BME280;17256;43.618;25.336;2023-05-07T09:12:51;101006.13;;;22.94;45.71
30463;BME280;17256;43.618;25.336;2023-05-07T09:15:18;100700.22;;;21.09;46.11
30463;BME280;17256;43.618;25.336;2023-05-07T09:17:48;100894.41;;;21.76;46.12
30463;BME280;17256;43.618;25.336;2023-05-07T09:20:16;100825.97;;;21.46;46.80
30463;BME280;17256;43.618;25.336;2023-05-07T09:22:45;100874.94;;;21.86;46.35
30463;BME280;17256;43.618;25.336;2023-05-07T09:28:14;100929.19;;;22.59;45.47
30463;BME280;17256;43.618;25.336;2023-05-07T09:30:40;100781.25;;;22.26;45.26
30463;BME280;17256;43.618;25.336;2023-05-07T09:33:09;100919.69;;;23.28;44.18
30463;BME280;17256;43.618;25.336;2023-05-07T09:35:39;100660.22;;;21.88;44.23
30463;BME280;17256;43.618;25.336;2023-05-07T09:38:13;100780.22;;;22.42;44.74
30463;BME280;17256;43.618;25.336;2023-05-07T09:40:41;100917.56;;;23.66;43.49
30463;BME280;17256;43.618;25.336;2023-05-07T09:43:13;100735.06;;;22.18;44.34
30463;BME280;17256;43.618;25.336;2023-05-07T09:54:17;100897.47;;;23.01;43.66
30463;BME280;17256;43.618;25.336;2023-05-07T09:56:48;100926.75;;;23.51;42.87
30463;BME280;17256;43.618;25.336;2023-05-07T09:59:16;100875.97;;;23.27;43.96
30463;BME280;17256;43.618;25.336;2023-05-07T10:01:44;100994.78;;;24.29;43.92
30463;BME280;17256;43.618;25.336;2023-05-07T10:04:11;100878.59;;;23.89;42.85
30463;BME280;17256;43.618;25.336;2023-05-07T10:06:41;100846.06;;;23.68;42.57
30463;BME280;17256;43.618;25.336;2023-05-07T10:09:09;100733.34;;;22.85;42.52
30463;BME280;17256;43.618;25.336;2023-05-07T10:11:40;100700.47;;;22.50;42.83
30463;BME280;17256;43.618;25.336;2023-05-07T10:14:11;100831.16;;;23.37;42.87
30463;BME280;17256;43.618;25.336;2023-05-07T10:16:44;100826.41;;;23.43;42.92
30463;BME280;17256;43.618;25.336;2023-05-07T10:19:29;100845.34;;;22.90;43.30
30463;BME280;17256;43.618;25.336;2023-05-07T10:22:03;100926.88;;;23.03;43.60
30463;BME280;17256;43.618;25.336;2023-05-07T10:24:34;100626.63;;;20.88;43.80
30463;BME280;17256;43.618;25.336;2023-05-07T10:38:05;101000.38;;;24.54;42.19
30463;BME280;17256;43.618;25.336;2023-05-07T10:41:01;100795.84;;;23.26;41.65
30463;BME280;17256;43.618;25.336;2023-05-07T10:43:43;100693.34;;;22.06;41.58
30463;BME280;17256;43.618;25.336;2023-05-07T10:46:28;100599.81;;;21.82;42.07
30463;BME280;17256;43.618;25.336;2023-05-07T11:05:21;100799.19;;;23.53;41.36
30463;BME280;17256;43.618;25.336;2023-05-07T11:08:03;100901.28;;;23.98;41.54
30463;BME280;17256;43.618;25.336;2023-05-07T11:17:14;100785.50;;;23.31;41.31
30463;BME280;17256;43.618;25.336;2023-05-07T11:19:51;100729.16;;;23.13;41.12
30463;BME280;17256;43.618;25.336;2023-05-07T11:22:52;100886.38;;;24.48;41.42
30463;BME280;17256;43.618;25.336;2023-05-07T11:30:17;100699.19;;;23.13;40.88
30463;BME280;17256;43.618;25.336;2023-05-07T11:38:26;100734.47;;;23.65;40.56
30463;BME280;17256;43.618;25.336;2023-05-07T11:42:21;100575.94;;;22.37;40.17
30463;BME280;17256;43.618;25.336;2023-05-07T11:49:59;100756.28;;;23.93;40.00
30463;BME280;17256;43.618;25.336;2023-05-07T11:52:57;100588.00;;;22.93;39.92
30463;BME280;17256;43.618;25.336;2023-05-07T11:56:33;100941.03;;;25.46;39.14
30463;BME280;17256;43.618;25.336;2023-05-07T11:59:45;100598.19;;;23.69;39.01
30463;BME280;17256;43.618;25.336;2023-05-07T12:18:30;100912.53;;;25.19;40.09
30463;BME280;17256;43.618;25.336;2023-05-07T12:33:08;100571.06;;;23.44;39.23
30463;BME280;17256;43.618;25.336;2023-05-07T12:44:10;100619.50;;;23.70;40.01
30463;BME280;17256;43.618;25.336;2023-05-07T12:46:56;100593.22;;;23.41;40.04
30463;BME280;17256;43.618;25.336;2023-05-07T12:49:38;100534.16;;;23.17;40.87
30463;BME280;17256;43.618;25.336;2023-05-07T12:52:13;100775.03;;;24.83;41.09
30463;BME280;17256;43.618;25.336;2023-05-07T12:54:45;100549.31;;;23.16;40.76
30463;BME280;17256;43.618;25.336;2023-05-07T12:57:28;100547.06;;;23.02;41.32
30463;BME280;17256;43.618;25.336;2023-05-07T13:07:19;100869.31;;;25.54;41.76
30463;BME280;17256;43.618;25.336;2023-05-07T14:08:02;100473.47;;;22.87;41.74
30463;BME280;17256;43.618;25.336;2023-05-07T14:22:13;100447.72;;;22.85;41.34
30463;BME280;17256;43.618;25.336;2023-05-07T14:24:39;100638.03;;;23.61;41.78
30463;BME280;17256;43.618;25.336;2023-05-07T14:27:07;100550.91;;;23.37;41.91
30463;BME280;17256;43.618;25.336;2023-05-07T14:29:33;100522.78;;;23.68;41.99
30463;BME280;17256;43.618;25.336;2023-05-07T14:32:01;100616.25;;;24.02;42.28
30463;BME280;17256;43.618;25.336;2023-05-07T14:49:16;100501.78;;;23.65;41.10
30463;BME280;17256;43.618;25.336;2023-05-07T14:52:38;100832.22;;;25.86;41.09
30463;BME280;17256;43.618;25.336;2023-05-07T14:55:31;100683.19;;;25.18;40.90
30463;BME280;17256;43.618;25.336;2023-05-07T14:58:02;100755.09;;;25.53;41.31
30463;BME280;17256;43.618;25.336;2023-05-07T15:00:31;100582.78;;;24.21;41.78
30463;BME280;17256;43.618;25.336;2023-05-07T15:03:10;100419.00;;;23.23;41.26
30463;BME280;17256;43.618;25.336;2023-05-07T15:05:38;100574.97;;;24.13;41.02
30463;BME280;17256;43.618;25.336;2023-05-07T15:08:07;100691.19;;;25.00;41.41
30463;BME280;17256;43.618;25.336;2023-05-07T15:10:37;100746.59;;;25.34;40.75
30463;BME280;17256;43.618;25.336;2023-05-07T15:13:08;100453.78;;;23.17;40.57
30463;BME280;17256;43.618;25.336;2023-05-07T15:15:36;100633.69;;;24.04;42.40
30463;BME280;17256;43.618;25.336;2023-05-07T15:18:03;100621.00;;;24.12;41.96
30463;BME280;17256;43.618;25.336;2023-05-07T15:20:31;100587.56;;;23.66;41.59
30463;BME280;17256;43.618;25.336;2023-05-07T15:23:01;100574.44;;;23.56;42.18
30463;BME280;17256;43.618;25.336;2023-05-07T15:25:33;100580.72;;;23.87;42.17
30463;BME280;17256;43.618;25.336;2023-05-07T15:28:00;100825.69;;;25.56;41.52
30463;BME280;17256;43.618;25.336;2023-05-07T15:30:29;100548.28;;;23.71;41.77
30463;BME280;17256;43.618;25.336;2023-05-07T15:32:57;100662.06;;;24.47;42.38
30463;BME280;17256;43.618;25.336;2023-05-07T15:35:24;100772.97;;;25.04;42.45
30463;BME280;17256;43.618;25.336;2023-05-07T15:38:00;100607.84;;;24.02;42.65
30463;BME280;17256;43.618;25.336;2023-05-07T15:49:20;100794.81;;;25.12;42.13
30463;BME280;17256;43.618;25.336;2023-05-07T15:52:41;100794.53;;;25.13;41.51
30463;BME280;17256;43.618;25.336;2023-05-07T15:55:08;100405.44;;;22.71;41.85
30463;BME280;17256;43.618;25.336;2023-05-07T15:57:45;100656.81;;;24.25;42.65
30463;BME280;17256;43.618;25.336;2023-05-07T16:00:27;100810.88;;;25.01;42.40
30463;BME280;17256;43.618;25.336;2023-05-07T16:02:58;100617.50;;;23.81;42.60
30463;BME280;17256;43.618;25.336;2023-05-07T16:05:24;100502.56;;;23.06;42.74
30463;BME280;17256;43.618;25.336;2023-05-07T16:07:51;100442.69;;;22.71;42.60
30463;BME280;17256;43.618;25.336;2023-05-07T16:10:20;100593.72;;;23.53;42.98
30463;BME280;17256;43.618;25.336;2023-05-07T16:12:48;100678.53;;;24.09;43.23
30463;BME280;17256;43.618;25.336;2023-05-07T16:15:17;100322.25;;;21.66;43.73
30463;BME280;17256;43.618;25.336;2023-05-07T16:27:24;100552.75;;;22.82;44.28
30463;BME280;17256;43.618;25.336;2023-05-07T16:30:32;100419.25;;;21.86;44.43
30463;BME280;17256;43.618;25.336;2023-05-07T16:33:52;100417.81;;;21.78;43.66
30463;BME280;17256;43.618;25.336;2023-05-07T16:36:26;100656.03;;;23.35;43.29
30463;BME280;17256;43.618;25.336;2023-05-07T16:39:03;100606.50;;;22.84;43.52
30463;BME280;17256;43.618;25.336;2023-05-07T16:41:32;100523.03;;;22.20;43.39
30463;BME280;17256;43.618;25.336;2023-05-07T16:44:00;100451.91;;;21.75;43.72
30463;BME280;17256;43.618;25.336;2023-05-07T16:46:28;100493.59;;;21.87;44.10
30463;BME280;17256;43.618;25.336;2023-05-07T16:48:55;100367.09;;;21.14;44.13
30463;BME280;17256;43.618;25.336;2023-05-07T16:51:21;100615.09;;;22.47;44.07
30463;BME280;17256;43.618;25.336;2023-05-07T16:53:49;100578.41;;;22.08;44.61
30463;BME280;17256;43.618;25.336;2023-05-07T17:00:22;100681.44;;;22.47;45.48
30463;BME280;17256;43.618;25.336;2023-05-07T17:03:00;100764.13;;;22.85;45.67
30463;BME280;17256;43.618;25.336;2023-05-07T17:08:46;100655.06;;;22.17;45.91
30463;BME280;17256;43.618;25.336;2023-05-07T17:12:29;100386.94;;;20.55;46.06
30463;BME280;17256;43.618;25.336;2023-05-07T17:16:04;100768.81;;;22.69;47.74
30463;BME280;17256;43.618;25.336;2023-05-07T17:18:33;100551.50;;;21.24;48.14
30463;BME280;17256;43.618;25.336;2023-05-07T17:21:13;100413.19;;;20.22;48.42
30463;BME280;17256;43.618;25.336;2023-05-07T17:23:43;100700.50;;;21.87;48.80
30463;BME280;17256;43.618;25.336;2023-05-07T17:26:28;100603.09;;;21.16;49.20
30463;BME280;17256;43.618;25.336;2023-05-07T17:29:01;100605.03;;;21.16;49.85
30463;BME280;17256;43.618;25.336;2023-05-07T17:31:30;100548.47;;;20.56;49.76
30463;BME280;17256;43.618;25.336;2023-05-07T17:33:58;100484.31;;;20.24;50.08
30463;BME280;17256;43.618;25.336;2023-05-07T17:36:25;100527.81;;;20.25;50.23
30463;BME280;17256;43.618;25.336;2023-05-07T17:38:52;100353.97;;;19.14;50.25
30463;BME280;17256;43.618;25.336;2023-05-07T17:41:19;100588.34;;;20.52;50.86
30463;BME280;17256;43.618;25.336;2023-05-07T17:43:47;100590.41;;;20.35;50.43
30463;BME280;17256;43.618;25.336;2023-05-07T17:46:14;100711.84;;;21.01;51.01
30463;BME280;17256;43.618;25.336;2023-05-07T17:48:41;100399.78;;;19.06;50.78
30463;BME280;17256;43.618;25.336;2023-05-07T17:51:10;100521.75;;;19.75;51.14
30463;BME280;17256;43.618;25.336;2023-05-07T17:53:36;100611.84;;;20.07;51.60
30463;BME280;17256;43.618;25.336;2023-05-07T17:56:02;100782.56;;;21.07;51.99
30463;BME280;17256;43.618;25.336;2023-05-07T17:58:29;100567.38;;;19.69;51.75
30463;BME280;17256;43.618;25.336;2023-05-07T18:00:55;100672.84;;;20.25;51.92
30463;BME280;17256;43.618;25.336;2023-05-07T18:03:20;100687.09;;;20.29;52.02
30463;BME280;17256;43.618;25.336;2023-05-07T18:05:48;100518.91;;;19.26;52.27
30463;BME280;17256;43.618;25.336;2023-05-07T18:08:14;100662.31;;;19.84;52.78
30463;BME280;17256;43.618;25.336;2023-05-07T18:10:39;100547.03;;;19.08;53.25
30463;BME280;17256;43.618;25.336;2023-05-07T18:13:05;100739.66;;;20.15;54.16
30463;BME280;17256;43.618;25.336;2023-05-07T18:15:34;100727.00;;;20.08;53.53
30463;BME280;17256;43.618;25.336;2023-05-07T18:17:59;100749.13;;;20.14;53.76
30463;BME280;17256;43.618;25.336;2023-05-07T18:20:25;100696.75;;;19.78;54.54
30463;BME280;17256;43.618;25.336;2023-05-07T18:22:50;100638.53;;;19.38;54.29
30463;BME280;17256;43.618;25.336;2023-05-07T18:25:16;100670.13;;;19.48;54.53
30463;BME280;17256;43.618;25.336;2023-05-07T18:27:42;100576.53;;;18.87;55.27
30463;BME280;17256;43.618;25.336;2023-05-07T18:30:08;100562.00;;;18.51;55.59
30463;BME280;17256;43.618;25.336;2023-05-07T18:32:34;100585.53;;;18.77;56.07
30463;BME280;17256;43.618;25.336;2023-05-07T18:34:59;100728.06;;;19.63;55.91
30463;BME280;17256;43.618;25.336;2023-05-07T18:37:25;100825.25;;;20.15;56.39
30463;BME280;17256;43.618;25.336;2023-05-07T18:39:51;100469.75;;;18.04;56.21
30463;BME280;17256;43.618;25.336;2023-05-07T18:42:19;100823.13;;;20.05;56.66
30463;BME280;17256;43.618;25.336;2023-05-07T18:44:49;100670.03;;;19.04;56.68
30463;BME280;17256;43.618;25.336;2023-05-07T18:50:45;100572.34;;;18.22;57.70
30463;BME280;17256;43.618;25.336;2023-05-07T19:05:10;100689.28;;;18.61;59.50
30463;BME280;17256;43.618;25.336;2023-05-07T19:07:43;100497.72;;;17.29;59.22
30463;BME280;17256;43.618;25.336;2023-05-07T19:10:13;100583.00;;;17.97;59.45
30463;BME280;17256;43.618;25.336;2023-05-07T19:12:40;100487.22;;;17.31;59.42
30463;BME280;17256;43.618;25.336;2023-05-07T19:34:53;100573.75;;;17.39;60.96
30463;BME280;17256;43.618;25.336;2023-05-07T19:37:24;100322.66;;;15.86;60.80
30463;BME280;17256;43.618;25.336;2023-05-07T19:39:58;100417.06;;;16.43;61.22
30463;BME280;17256;43.618;25.336;2023-05-07T19:42:30;100662.53;;;17.74;61.37
30463;BME280;17256;43.618;25.336;2023-05-07T19:44:57;100563.78;;;17.15;61.40
30463;BME280;17256;43.618;25.336;2023-05-07T19:47:23;100666.06;;;17.70;62.18
30463;BME280;17256;43.618;25.336;2023-05-07T19:49:49;100574.00;;;17.26;61.91
30463;BME280;17256;43.618;25.336;2023-05-07T19:52:14;100630.91;;;17.52;61.44
30463;BME280;17256;43.618;25.336;2023-05-07T19:54:40;100629.34;;;17.56;61.88
30463;BME280;17256;43.618;25.336;2023-05-07T19:57:07;100637.94;;;17.43;62.24
30463;BME280;17256;43.618;25.336;2023-05-07T19:59:33;100685.84;;;17.73;62.36
30463;BME280;17256;43.618;25.336;2023-05-07T20:01:59;100556.91;;;16.94;62.12
30463;BME280;17256;43.618;25.336;2023-05-07T20:04:25;100539.91;;;16.79;62.18
30463;BME280;17256;43.618;25.336;2023-05-07T20:06:55;100500.81;;;16.45;62.88
30463;BME280;17256;43.618;25.336;2023-05-07T20:09:22;100857.88;;;18.62;62.95
30463;BME280;17256;43.618;25.336;2023-05-07T20:29:23;100764.56;;;17.79;64.60
30463;BME280;17256;43.618;25.336;2023-05-07T20:32:00;100684.06;;;17.20;65.24
30463;BME280;17256;43.618;25.336;2023-05-07T20:34:36;100406.00;;;15.55;64.45
30463;BME280;17256;43.618;25.336;2023-05-07T20:37:56;100399.13;;;15.46;64.71
30463;BME280;17256;43.618;25.336;2023-05-07T20:40:40;100486.44;;;16.02;65.21
30463;BME280;17256;43.618;25.336;2023-05-07T20:43:25;100573.69;;;16.34;65.11
30463;BME280;17256;43.618;25.336;2023-05-07T20:46:19;100413.19;;;15.44;65.63
30463;BME280;17256;43.618;25.336;2023-05-07T20:49:02;100571.94;;;16.40;65.48
30463;BME280;17256;43.618;25.336;2023-05-07T20:51:36;100860.72;;;18.03;66.39
30463;BME280;17256;43.618;25.336;2023-05-07T20:54:15;100614.63;;;16.62;65.51
30463;BME280;17256;43.618;25.336;2023-05-07T20:56:57;100411.41;;;15.20;66.18
30463;BME280;17256;43.618;25.336;2023-05-07T20:59:40;100408.69;;;15.31;65.86
30463;BME280;17256;43.618;25.336;2023-05-07T21:02:07;100691.03;;;17.00;66.01
30463;BME280;17256;43.618;25.336;2023-05-07T21:04:36;100738.69;;;17.08;66.66
30463;BME280;17256;43.618;25.336;2023-05-07T21:07:03;100613.16;;;16.48;66.21
30463;BME280;17256;43.618;25.336;2023-05-07T21:09:29;100718.41;;;16.96;66.38
30463;BME280;17256;43.618;25.336;2023-05-07T21:11:55;100685.69;;;16.75;66.67
30463;BME280;17256;43.618;25.336;2023-05-07T21:14:22;100374.06;;;15.11;66.27
30463;BME280;17256;43.618;25.336;2023-05-07T21:16:48;100793.53;;;17.60;66.26
30463;BME280;17256;43.618;25.336;2023-05-07T21:19:14;100657.75;;;16.58;66.59
30463;BME280;17256;43.618;25.336;2023-05-07T21:21:41;100254.53;;;14.19;66.71
30463;BME280;17256;43.618;25.336;2023-05-07T21:33:28;100413.28;;;15.07;66.09
30463;BME280;17256;43.618;25.336;2023-05-07T21:36:56;100826.31;;;17.69;65.93
30463;BME280;17256;43.618;25.336;2023-05-07T21:40:27;100364.00;;;14.86;65.41
30463;BME280;17256;43.618;25.336;2023-05-07T21:44:03;100361.41;;;14.73;66.00
30463;BME280;17256;43.618;25.336;2023-05-07T21:47:21;100818.22;;;17.68;65.21
30463;BME280;17256;43.618;25.336;2023-05-07T21:50:28;100344.44;;;14.88;64.25
30463;BME280;17256;43.618;25.336;2023-05-07T21:53:21;100570.94;;;16.34;64.06
30463;BME280;17256;43.618;25.336;2023-05-07T21:56:48;100645.06;;;16.80;64.49
30463;BME280;17256;43.618;25.336;2023-05-07T21:59:55;100817.88;;;17.88;64.66
30463;BME280;17256;43.618;25.336;2023-05-07T22:02:36;100461.59;;;15.53;64.25
30463;BME280;17256;43.618;25.336;2023-05-07T22:05:45;100755.16;;;17.45;64.28